sensor_id;sensor_type;location;lat;lon;timestamp;P1;durP1;ratioP1;P2;durP2;ratioP2
84144;SDS011;74264;48.988;12.040;2024-03-08T00:01:50;52.42;;;23.23;;
84144;SDS011;74264;48.988;12.040;2024-03-08T00:04:17;48.03;;;23.58;;
84144;SDS011;74264;48.988;12.040;2024-03-08T00:06:42;49.72;;;22.10;;
84144;SDS011;74264;48.988;12.040;2024-03-08T00:09:11;50.67;;;23.80;;
84144;SDS011;74264;48.988;12.040;2024-03-08T00:11:37;41.13;;;21.35;;
84144;SDS011;74264;48.988;12.040;2024-03-08T00:14:03;48.05;;;23.20;;
84144;SDS011;74264;48.988;12.040;2024-03-08T00:16:32;46.92;;;22.35;;
84144;SDS011;74264;48.988;12.040;2024-03-08T00:18:58;45.88;;;23.40;;
84144;SDS011;74264;48.988;12.040;2024-03-08T00:21:24;46.00;;;22.90;;
84144;SDS011;74264;48.988;12.040;2024-03-08T00:23:49;44.80;;;23.45;;
84144;SDS011;74264;48.988;12.040;2024-03-08T00:26:15;48.42;;;22.65;;
84144;SDS011;74264;48.988;12.040;2024-03-08T00:28:41;55.10;;;25.10;;
84144;SDS011;74264;48.988;12.040;2024-03-08T00:31:06;48.03;;;23.75;;
84144;SDS011;74264;48.988;12.040;2024-03-08T00:33:32;43.22;;;22.90;;
84144;SDS011;74264;48.988;12.040;2024-03-08T00:35:58;44.55;;;20.98;;
84144;SDS011;74264;48.988;12.040;2024-03-08T00:38:23;47.15;;;22.02;;
84144;SDS011;74264;48.988;12.040;2024-03-08T00:40:49;51.15;;;23.10;;
84144;SDS011;74264;48.988;12.040;2024-03-08T00:43:14;48.03;;;23.10;;
84144;SDS011;74264;48.988;12.040;2024-03-08T00:45:41;48.33;;;23.42;;
84144;SDS011;74264;48.988;12.040;2024-03-08T00:48:08;48.45;;;24.00;;
84144;SDS011;74264;48.988;12.040;2024-03-08T00:50:34;45.00;;;20.95;;
84144;SDS011;74264;48.988;12.040;2024-03-08T00:53:00;52.70;;;21.83;;
84144;SDS011;74264;48.988;12.040;2024-03-08T00:55:26;50.47;;;21.75;;
84144;SDS011;74264;48.988;12.040;2024-03-08T00:57:51;49.17;;;22.05;;
84144;SDS011;74264;48.988;12.040;2024-03-08T01:00:19;46.20;;;20.17;;
84144;SDS011;74264;48.988;12.040;2024-03-08T01:02:46;40.78;;;21.05;;
84144;SDS011;74264;48.988;12.040;2024-03-08T01:05:11;42.53;;;21.77;;
84144;SDS011;74264;48.988;12.040;2024-03-08T01:07:37;43.47;;;21.67;;
84144;SDS011;74264;48.988;12.040;2024-03-08T01:10:04;56.05;;;24.60;;
84144;SDS011;74264;48.988;12.040;2024-03-08T01:12:34;41.38;;;22.42;;
84144;SDS011;74264;48.988;12.040;2024-03-08T01:15:00;46.67;;;24.42;;
84144;SDS011;74264;48.988;12.040;2024-03-08T01:17:26;57.35;;;25.20;;
84144;SDS011;74264;48.988;12.040;2024-03-08T01:19:52;46.30;;;24.38;;
84144;SDS011;74264;48.988;12.040;2024-03-08T01:22:18;48.47;;;23.23;;
84144;SDS011;74264;48.988;12.040;2024-03-08T01:24:45;43.35;;;22.40;;
84144;SDS011;74264;48.988;12.040;2024-03-08T01:27:10;50.05;;;24.60;;
84144;SDS011;74264;48.988;12.040;2024-03-08T01:29:37;51.30;;;21.95;;
84144;SDS011;74264;48.988;12.040;2024-03-08T01:32:03;41.75;;;19.70;;
84144;SDS011;74264;48.988;12.040;2024-03-08T01:34:29;47.80;;;21.65;;
84144;SDS011;74264;48.988;12.040;2024-03-08T01:36:55;49.47;;;22.58;;
84144;SDS011;74264;48.988;12.040;2024-03-08T01:39:23;42.05;;;20.80;;
84144;SDS011;74264;48.988;12.040;2024-03-08T01:41:49;46.28;;;22.17;;
84144;SDS011;74264;48.988;12.040;2024-03-08T01:44:14;39.65;;;20.42;;
84144;SDS011;74264;48.988;12.040;2024-03-08T01:46:46;50.97;;;22.25;;
84144;SDS011;74264;48.988;12.040;2024-03-08T01:49:12;54.22;;;22.63;;
84144;SDS011;74264;48.988;12.040;2024-03-08T01:51:39;49.22;;;23.17;;
84144;SDS011;74264;48.988;12.040;2024-03-08T01:54:06;45.67;;;23.30;;
84144;SDS011;74264;48.988;12.040;2024-03-08T01:56:35;49.63;;;24.15;;
84144;SDS011;74264;48.988;12.040;2024-03-08T01:59:03;51.40;;;23.75;;
84144;SDS011;74264;48.988;12.040;2024-03-08T02:01:29;51.38;;;23.75;;
84144;SDS011;74264;48.988;12.040;2024-03-08T02:03:55;47.90;;;24.08;;
84144;SDS011;74264;48.988;12.040;2024-03-08T02:06:20;46.33;;;22.55;;
84144;SDS011;74264;48.988;12.040;2024-03-08T02:08:46;47.28;;;21.50;;
84144;SDS011;74264;48.988;12.040;2024-03-08T02:11:12;47.35;;;23.50;;
84144;SDS011;74264;48.988;12.040;2024-03-08T02:13:38;44.50;;;22.38;;
84144;SDS011;74264;48.988;12.040;2024-03-08T02:16:04;46.55;;;22.58;;
84144;SDS011;74264;48.988;12.040;2024-03-08T02:18:33;68.00;;;25.70;;
84144;SDS011;74264;48.988;12.040;2024-03-08T02:21:05;54.05;;;23.67;;
84144;SDS011;74264;48.988;12.040;2024-03-08T02:23:33;48.05;;;21.67;;
84144;SDS011;74264;48.988;12.040;2024-03-08T02:25:59;52.20;;;23.55;;
84144;SDS011;74264;48.988;12.040;2024-03-08T02:28:25;46.67;;;21.75;;
84144;SDS011;74264;48.988;12.040;2024-03-08T02:30:52;45.00;;;21.65;;
84144;SDS011;74264;48.988;12.040;2024-03-08T02:33:24;50.67;;;23.50;;
84144;SDS011;74264;48.988;12.040;2024-03-08T02:35:51;54.05;;;24.40;;
84144;SDS011;74264;48.988;12.040;2024-03-08T02:38:18;55.40;;;24.23;;
84144;SDS011;74264;48.988;12.040;2024-03-08T02:40:48;48.55;;;24.20;;
84144;SDS011;74264;48.988;12.040;2024-03-08T02:43:15;49.28;;;23.75;;
84144;SDS011;74264;48.988;12.040;2024-03-08T02:45:42;52.75;;;24.60;;
84144;SDS011;74264;48.988;12.040;2024-03-08T02:48:09;47.78;;;24.58;;
84144;SDS011;74264;48.988;12.040;2024-03-08T02:50:36;51.97;;;24.20;;
84144;SDS011;74264;48.988;12.040;2024-03-08T02:53:02;50.95;;;24.35;;
84144;SDS011;74264;48.988;12.040;2024-03-08T02:55:27;52.00;;;24.30;;
84144;SDS011;74264;48.988;12.040;2024-03-08T02:57:53;50.90;;;24.70;;
84144;SDS011;74264;48.988;12.040;2024-03-08T03:00:22;46.72;;;22.63;;
84144;SDS011;74264;48.988;12.040;2024-03-08T03:02:48;42.22;;;22.88;;
84144;SDS011;74264;48.988;12.040;2024-03-08T03:05:21;46.47;;;22.85;;
84144;SDS011;74264;48.988;12.040;2024-03-08T03:07:48;46.58;;;23.08;;
84144;SDS011;74264;48.988;12.040;2024-03-08T03:10:13;47.53;;;23.52;;
84144;SDS011;74264;48.988;12.040;2024-03-08T03:12:42;44.17;;;23.33;;
84144;SDS011;74264;48.988;12.040;2024-03-08T03:15:08;44.53;;;22.98;;
84144;SDS011;74264;48.988;12.040;2024-03-08T03:17:34;40.65;;;21.50;;
84144;SDS011;74264;48.988;12.040;2024-03-08T03:19:59;42.35;;;21.98;;
84144;SDS011;74264;48.988;12.040;2024-03-08T03:22:30;40.80;;;23.13;;
84144;SDS011;74264;48.988;12.040;2024-03-08T03:24:55;47.35;;;23.98;;
84144;SDS011;74264;48.988;12.040;2024-03-08T03:27:23;45.72;;;21.83;;
84144;SDS011;74264;48.988;12.040;2024-03-08T03:29:50;45.80;;;22.73;;
84144;SDS011;74264;48.988;12.040;2024-03-08T03:32:17;47.92;;;22.55;;
84144;SDS011;74264;48.988;12.040;2024-03-08T03:34:46;49.28;;;21.95;;
84144;SDS011;74264;48.988;12.040;2024-03-08T03:37:12;53.45;;;24.60;;
84144;SDS011;74264;48.988;12.040;2024-03-08T03:39:38;44.88;;;21.02;;
84144;SDS011;74264;48.988;12.040;2024-03-08T03:42:18;42.33;;;20.92;;
84144;SDS011;74264;48.988;12.040;2024-03-08T03:44:48;45.55;;;21.63;;
84144;SDS011;74264;48.988;12.040;2024-03-08T03:47:14;48.92;;;22.38;;
84144;SDS011;74264;48.988;12.040;2024-03-08T03:49:40;44.03;;;22.35;;
84144;SDS011;74264;48.988;12.040;2024-03-08T03:52:07;51.40;;;24.52;;
84144;SDS011;74264;48.988;12.040;2024-03-08T03:54:32;52.20;;;23.05;;
84144;SDS011;74264;48.988;12.040;2024-03-08T03:56:59;52.40;;;24.20;;
84144;SDS011;74264;48.988;12.040;2024-03-08T03:59:26;44.00;;;22.85;;
84144;SDS011;74264;48.988;12.040;2024-03-08T04:01:54;56.40;;;26.10;;
84144;SDS011;74264;48.988;12.040;2024-03-08T04:04:20;55.70;;;26.00;;
84144;SDS011;74264;48.988;12.040;2024-03-08T04:06:46;58.60;;;26.55;;
84144;SDS011;74264;48.988;12.040;2024-03-08T04:09:13;52.65;;;26.63;;
84144;SDS011;74264;48.988;12.040;2024-03-08T04:11:39;61.55;;;25.25;;
84144;SDS011;74264;48.988;12.040;2024-03-08T04:14:04;53.05;;;24.25;;
84144;SDS011;74264;48.988;12.040;2024-03-08T04:16:30;50.50;;;24.13;;
84144;SDS011;74264;48.988;12.040;2024-03-08T04:18:57;46.10;;;22.20;;
84144;SDS011;74264;48.988;12.040;2024-03-08T04:21:25;44.63;;;21.92;;
84144;SDS011;74264;48.988;12.040;2024-03-08T04:23:51;46.95;;;21.67;;
84144;SDS011;74264;48.988;12.040;2024-03-08T04:26:16;39.78;;;20.83;;
84144;SDS011;74264;48.988;12.040;2024-03-08T04:28:43;39.28;;;20.35;;
84144;SDS011;74264;48.988;12.040;2024-03-08T04:31:09;43.85;;;21.65;;
84144;SDS011;74264;48.988;12.040;2024-03-08T04:33:36;38.45;;;19.55;;
84144;SDS011;74264;48.988;12.040;2024-03-08T04:36:01;41.60;;;19.38;;
84144;SDS011;74264;48.988;12.040;2024-03-08T04:38:29;41.60;;;20.08;;
84144;SDS011;74264;48.988;12.040;2024-03-08T04:40:56;40.08;;;21.05;;
84144;SDS011;74264;48.988;12.040;2024-03-08T04:43:23;42.03;;;20.15;;
84144;SDS011;74264;48.988;12.040;2024-03-08T04:45:52;41.72;;;20.35;;
84144;SDS011;74264;48.988;12.040;2024-03-08T04:48:18;44.38;;;21.77;;
84144;SDS011;74264;48.988;12.040;2024-03-08T04:50:45;48.53;;;20.83;;
84144;SDS011;74264;48.988;12.040;2024-03-08T04:53:11;43.15;;;20.20;;
84144;SDS011;74264;48.988;12.040;2024-03-08T04:55:36;45.22;;;20.23;;
84144;SDS011;74264;48.988;12.040;2024-03-08T04:58:03;45.47;;;22.27;;
84144;SDS011;74264;48.988;12.040;2024-03-08T05:00:31;42.83;;;21.13;;
84144;SDS011;74264;48.988;12.040;2024-03-08T05:02:58;36.42;;;19.80;;
84144;SDS011;74264;48.988;12.040;2024-03-08T05:05:24;43.22;;;20.88;;
84144;SDS011;74264;48.988;12.040;2024-03-08T05:07:50;48.47;;;23.30;;
84144;SDS011;74264;48.988;12.040;2024-03-08T05:10:15;50.17;;;24.92;;
84144;SDS011;74264;48.988;12.040;2024-03-08T05:12:44;45.03;;;22.83;;
84144;SDS011;74264;48.988;12.040;2024-03-08T05:15:09;49.20;;;22.70;;
84144;SDS011;74264;48.988;12.040;2024-03-08T05:17:35;41.45;;;20.23;;
84144;SDS011;74264;48.988;12.040;2024-03-08T05:20:01;42.03;;;19.77;;
84144;SDS011;74264;48.988;12.040;2024-03-08T05:22:27;33.83;;;19.05;;
84144;SDS011;74264;48.988;12.040;2024-03-08T05:24:53;49.25;;;21.52;;
84144;SDS011;74264;48.988;12.040;2024-03-08T05:27:18;43.25;;;19.50;;
84144;SDS011;74264;48.988;12.040;2024-03-08T05:29:44;42.78;;;20.60;;
84144;SDS011;74264;48.988;12.040;2024-03-08T05:32:11;45.55;;;22.10;;
84144;SDS011;74264;48.988;12.040;2024-03-08T05:34:37;48.88;;;22.77;;
84144;SDS011;74264;48.988;12.040;2024-03-08T05:37:03;42.90;;;20.27;;
84144;SDS011;74264;48.988;12.040;2024-03-08T05:39:29;46.55;;;21.15;;
84144;SDS011;74264;48.988;12.040;2024-03-08T05:41:55;44.22;;;20.58;;
84144;SDS011;74264;48.988;12.040;2024-03-08T05:44:21;47.40;;;21.95;;
84144;SDS011;74264;48.988;12.040;2024-03-08T05:46:47;46.80;;;22.25;;
84144;SDS011;74264;48.988;12.040;2024-03-08T05:49:12;46.92;;;22.27;;
84144;SDS011;74264;48.988;12.040;2024-03-08T05:51:39;46.95;;;22.17;;
84144;SDS011;74264;48.988;12.040;2024-03-08T05:54:09;51.25;;;23.20;;
84144;SDS011;74264;48.988;12.040;2024-03-08T05:56:36;56.25;;;23.55;;
84144;SDS011;74264;48.988;12.040;2024-03-08T05:59:02;54.65;;;25.30;;
84144;SDS011;74264;48.988;12.040;2024-03-08T06:01:28;53.17;;;25.40;;
84144;SDS011;74264;48.988;12.040;2024-03-08T06:03:54;46.95;;;23.60;;
84144;SDS011;74264;48.988;12.040;2024-03-08T06:06:22;53.90;;;23.08;;
84144;SDS011;74264;48.988;12.040;2024-03-08T06:08:49;49.30;;;23.70;;
84144;SDS011;74264;48.988;12.040;2024-03-08T06:11:15;44.53;;;23.10;;
84144;SDS011;74264;48.988;12.040;2024-03-08T06:13:44;50.15;;;23.55;;
84144;SDS011;74264;48.988;12.040;2024-03-08T06:16:10;50.85;;;23.05;;
84144;SDS011;74264;48.988;12.040;2024-03-08T06:18:37;46.10;;;22.08;;
84144;SDS011;74264;48.988;12.040;2024-03-08T06:21:03;57.00;;;25.33;;
84144;SDS011;74264;48.988;12.040;2024-03-08T06:23:33;71.38;;;29.75;;
84144;SDS011;74264;48.988;12.040;2024-03-08T06:25:59;73.65;;;27.67;;
84144;SDS011;74264;48.988;12.040;2024-03-08T06:28:25;62.35;;;26.98;;
84144;SDS011;74264;48.988;12.040;2024-03-08T06:30:51;58.92;;;26.65;;
84144;SDS011;74264;48.988;12.040;2024-03-08T06:33:19;63.08;;;26.50;;
84144;SDS011;74264;48.988;12.040;2024-03-08T06:35:45;53.88;;;25.45;;
84144;SDS011;74264;48.988;12.040;2024-03-08T06:38:10;57.55;;;26.23;;
84144;SDS011;74264;48.988;12.040;2024-03-08T06:40:36;50.28;;;23.88;;
84144;SDS011;74264;48.988;12.040;2024-03-08T06:43:02;51.22;;;24.35;;
84144;SDS011;74264;48.988;12.040;2024-03-08T06:45:31;51.70;;;24.65;;
84144;SDS011;74264;48.988;12.040;2024-03-08T06:47:57;44.60;;;23.23;;
84144;SDS011;74264;48.988;12.040;2024-03-08T06:50:22;51.63;;;25.35;;
84144;SDS011;74264;48.988;12.040;2024-03-08T06:52:48;44.58;;;24.25;;
84144;SDS011;74264;48.988;12.040;2024-03-08T06:55:19;49.03;;;23.90;;
84144;SDS011;74264;48.988;12.040;2024-03-08T06:57:47;44.50;;;22.77;;
84144;SDS011;74264;48.988;12.040;2024-03-08T07:00:12;46.08;;;25.20;;
84144;SDS011;74264;48.988;12.040;2024-03-08T07:02:46;50.80;;;24.42;;
84144;SDS011;74264;48.988;12.040;2024-03-08T07:05:14;47.10;;;24.13;;
84144;SDS011;74264;48.988;12.040;2024-03-08T07:07:41;46.30;;;24.40;;
84144;SDS011;74264;48.988;12.040;2024-03-08T07:10:07;51.67;;;26.38;;
84144;SDS011;74264;48.988;12.040;2024-03-08T07:12:36;56.63;;;26.48;;
84144;SDS011;74264;48.988;12.040;2024-03-08T07:15:04;46.85;;;24.83;;
84144;SDS011;74264;48.988;12.040;2024-03-08T07:17:31;50.83;;;26.98;;
84144;SDS011;74264;48.988;12.040;2024-03-08T07:19:56;48.15;;;23.83;;
84144;SDS011;74264;48.988;12.040;2024-03-08T07:22:24;48.20;;;25.15;;
84144;SDS011;74264;48.988;12.040;2024-03-08T07:24:50;54.85;;;27.05;;
84144;SDS011;74264;48.988;12.040;2024-03-08T07:27:16;48.85;;;25.90;;
84144;SDS011;74264;48.988;12.040;2024-03-08T07:29:42;53.95;;;26.60;;
84144;SDS011;74264;48.988;12.040;2024-03-08T07:32:08;49.50;;;26.08;;
84144;SDS011;74264;48.988;12.040;2024-03-08T07:34:44;46.80;;;25.13;;
84144;SDS011;74264;48.988;12.040;2024-03-08T07:37:10;56.00;;;26.80;;
84144;SDS011;74264;48.988;12.040;2024-03-08T07:39:37;58.45;;;26.25;;
84144;SDS011;74264;48.988;12.040;2024-03-08T07:42:04;55.08;;;27.98;;
84144;SDS011;74264;48.988;12.040;2024-03-08T07:44:29;62.33;;;28.88;;
84144;SDS011;74264;48.988;12.040;2024-03-08T07:46:56;57.75;;;29.67;;
84144;SDS011;74264;48.988;12.040;2024-03-08T07:49:22;46.90;;;23.77;;
84144;SDS011;74264;48.988;12.040;2024-03-08T07:51:48;41.50;;;22.73;;
84144;SDS011;74264;48.988;12.040;2024-03-08T07:54:14;44.88;;;24.38;;
84144;SDS011;74264;48.988;12.040;2024-03-08T07:56:40;37.65;;;19.15;;
84144;SDS011;74264;48.988;12.040;2024-03-08T07:59:05;30.48;;;17.20;;
84144;SDS011;74264;48.988;12.040;2024-03-08T08:01:31;32.83;;;18.40;;
84144;SDS011;74264;48.988;12.040;2024-03-08T08:03:59;31.63;;;17.58;;
84144;SDS011;74264;48.988;12.040;2024-03-08T08:06:26;34.63;;;17.60;;
84144;SDS011;74264;48.988;12.040;2024-03-08T08:08:52;28.30;;;17.00;;
84144;SDS011;74264;48.988;12.040;2024-03-08T08:11:18;29.85;;;16.42;;
84144;SDS011;74264;48.988;12.040;2024-03-08T08:13:45;30.33;;;16.30;;
84144;SDS011;74264;48.988;12.040;2024-03-08T08:16:11;30.52;;;15.32;;
84144;SDS011;74264;48.988;12.040;2024-03-08T08:18:38;30.23;;;15.57;;
84144;SDS011;74264;48.988;12.040;2024-03-08T08:21:04;28.27;;;16.05;;
84144;SDS011;74264;48.988;12.040;2024-03-08T08:23:32;27.80;;;15.20;;
84144;SDS011;74264;48.988;12.040;2024-03-08T08:25:57;36.25;;;16.27;;
84144;SDS011;74264;48.988;12.040;2024-03-08T08:28:23;28.83;;;15.40;;
84144;SDS011;74264;48.988;12.040;2024-03-08T08:30:49;32.35;;;15.85;;
84144;SDS011;74264;48.988;12.040;2024-03-08T08:33:15;25.55;;;15.27;;
84144;SDS011;74264;48.988;12.040;2024-03-08T08:35:41;34.08;;;15.38;;
84144;SDS011;74264;48.988;12.040;2024-03-08T08:38:08;28.00;;;15.13;;
84144;SDS011;74264;48.988;12.040;2024-03-08T08:40:34;25.63;;;14.75;;
84144;SDS011;74264;48.988;12.040;2024-03-08T08:43:01;26.83;;;16.02;;
84144;SDS011;74264;48.988;12.040;2024-03-08T08:45:32;27.25;;;13.43;;
84144;SDS011;74264;48.988;12.040;2024-03-08T08:47:58;27.23;;;15.75;;
84144;SDS011;74264;48.988;12.040;2024-03-08T08:50:26;28.40;;;15.75;;
84144;SDS011;74264;48.988;12.040;2024-03-08T08:52:53;27.05;;;15.82;;
84144;SDS011;74264;48.988;12.040;2024-03-08T08:55:20;29.30;;;16.00;;
84144;SDS011;74264;48.988;12.040;2024-03-08T08:57:46;27.70;;;16.48;;
84144;SDS011;74264;48.988;12.040;2024-03-08T09:00:17;25.77;;;14.60;;
84144;SDS011;74264;48.988;12.040;2024-03-08T09:02:46;27.58;;;16.35;;
84144;SDS011;74264;48.988;12.040;2024-03-08T09:05:13;32.92;;;15.75;;
84144;SDS011;74264;48.988;12.040;2024-03-08T09:07:45;30.08;;;15.95;;
84144;SDS011;74264;48.988;12.040;2024-03-08T09:10:11;25.88;;;15.05;;
84144;SDS011;74264;48.988;12.040;2024-03-08T09:12:40;21.48;;;13.23;;
84144;SDS011;74264;48.988;12.040;2024-03-08T09:15:06;24.85;;;14.57;;
84144;SDS011;74264;48.988;12.040;2024-03-08T09:17:38;29.27;;;16.35;;
84144;SDS011;74264;48.988;12.040;2024-03-08T09:20:07;25.42;;;14.27;;
84144;SDS011;74264;48.988;12.040;2024-03-08T09:22:34;27.58;;;15.45;;
84144;SDS011;74264;48.988;12.040;2024-03-08T09:25:00;25.42;;;14.73;;
84144;SDS011;74264;48.988;12.040;2024-03-08T09:27:26;28.20;;;15.40;;
84144;SDS011;74264;48.988;12.040;2024-03-08T09:29:53;27.70;;;14.20;;
84144;SDS011;74264;48.988;12.040;2024-03-08T09:32:20;22.67;;;15.23;;
84144;SDS011;74264;48.988;12.040;2024-03-08T09:34:48;25.05;;;14.20;;
84144;SDS011;74264;48.988;12.040;2024-03-08T09:37:13;23.38;;;13.60;;
84144;SDS011;74264;48.988;12.040;2024-03-08T09:39:39;22.55;;;13.73;;
84144;SDS011;74264;48.988;12.040;2024-03-08T09:42:05;21.88;;;13.75;;
84144;SDS011;74264;48.988;12.040;2024-03-08T09:44:31;24.77;;;13.80;;
84144;SDS011;74264;48.988;12.040;2024-03-08T09:46:57;26.25;;;15.05;;
84144;SDS011;74264;48.988;12.040;2024-03-08T09:49:24;22.45;;;13.98;;
84144;SDS011;74264;48.988;12.040;2024-03-08T09:51:50;21.02;;;12.43;;
84144;SDS011;74264;48.988;12.040;2024-03-08T09:54:16;19.55;;;11.68;;
84144;SDS011;74264;48.988;12.040;2024-03-08T09:56:42;21.13;;;13.68;;
84144;SDS011;74264;48.988;12.040;2024-03-08T09:59:09;23.38;;;13.00;;
84144;SDS011;74264;48.988;12.040;2024-03-08T10:02:11;24.88;;;14.85;;
84144;SDS011;74264;48.988;12.040;2024-03-08T10:04:40;22.15;;;13.10;;
84144;SDS011;74264;48.988;12.040;2024-03-08T10:07:11;19.80;;;12.57;;
84144;SDS011;74264;48.988;12.040;2024-03-08T10:09:37;22.23;;;12.60;;
84144;SDS011;74264;48.988;12.040;2024-03-08T10:12:04;19.60;;;13.13;;
84144;SDS011;74264;48.988;12.040;2024-03-08T10:14:30;17.50;;;11.55;;
84144;SDS011;74264;48.988;12.040;2024-03-08T10:16:59;18.75;;;11.00;;
84144;SDS011;74264;48.988;12.040;2024-03-08T10:19:26;15.35;;;10.20;;
84144;SDS011;74264;48.988;12.040;2024-03-08T10:21:53;16.42;;;11.50;;
84144;SDS011;74264;48.988;12.040;2024-03-08T10:24:18;19.13;;;11.95;;
84144;SDS011;74264;48.988;12.040;2024-03-08T10:26:45;18.10;;;11.27;;
84144;SDS011;74264;48.988;12.040;2024-03-08T10:29:11;21.02;;;12.05;;
84144;SDS011;74264;48.988;12.040;2024-03-08T10:31:43;18.83;;;11.73;;
84144;SDS011;74264;48.988;12.040;2024-03-08T10:34:10;18.95;;;10.93;;
84144;SDS011;74264;48.988;12.040;2024-03-08T10:36:35;24.25;;;13.35;;
84144;SDS011;74264;48.988;12.040;2024-03-08T10:39:03;18.33;;;12.50;;
84144;SDS011;74264;48.988;12.040;2024-03-08T10:41:34;17.38;;;11.60;;
84144;SDS011;74264;48.988;12.040;2024-03-08T10:47:02;22.67;;;12.60;;
84144;SDS011;74264;48.988;12.040;2024-03-08T10:49:38;20.63;;;11.68;;
84144;SDS011;74264;48.988;12.040;2024-03-08T10:52:07;17.42;;;11.40;;
84144;SDS011;74264;48.988;12.040;2024-03-08T10:54:37;24.45;;;11.18;;
84144;SDS011;74264;48.988;12.040;2024-03-08T10:57:06;16.13;;;11.05;;
84144;SDS011;74264;48.988;12.040;2024-03-08T10:59:34;15.23;;;11.15;;
84144;SDS011;74264;48.988;12.040;2024-03-08T11:02:00;17.10;;;11.15;;
84144;SDS011;74264;48.988;12.040;2024-03-08T11:04:26;13.82;;;10.52;;
84144;SDS011;74264;48.988;12.040;2024-03-08T11:06:59;22.33;;;10.73;;
84144;SDS011;74264;48.988;12.040;2024-03-08T11:09:32;14.18;;;9.55;;
84144;SDS011;74264;48.988;12.040;2024-03-08T11:15:01;15.98;;;10.15;;
84144;SDS011;74264;48.988;12.040;2024-03-08T11:20:25;15.82;;;11.25;;
84144;SDS011;74264;48.988;12.040;2024-03-08T11:22:51;14.90;;;11.32;;
84144;SDS011;74264;48.988;12.040;2024-03-08T11:30:46;15.38;;;10.30;;
84144;SDS011;74264;48.988;12.040;2024-03-08T11:33:34;11.60;;;9.30;;
84144;SDS011;74264;48.988;12.040;2024-03-08T11:36:13;12.20;;;9.00;;
84144;SDS011;74264;48.988;12.040;2024-03-08T11:38:47;15.98;;;10.23;;
84144;SDS011;74264;48.988;12.040;2024-03-08T11:41:14;14.52;;;9.50;;
84144;SDS011;74264;48.988;12.040;2024-03-08T11:43:43;13.85;;;10.30;;
84144;SDS011;74264;48.988;12.040;2024-03-08T11:46:10;12.65;;;9.73;;
84144;SDS011;74264;48.988;12.040;2024-03-08T11:48:38;14.48;;;9.05;;
84144;SDS011;74264;48.988;12.040;2024-03-08T11:51:07;9.55;;;8.30;;
84144;SDS011;74264;48.988;12.040;2024-03-08T11:53:33;9.85;;;7.38;;
84144;SDS011;74264;48.988;12.040;2024-03-08T11:56:08;10.20;;;7.72;;
84144;SDS011;74264;48.988;12.040;2024-03-08T11:58:38;12.25;;;7.72;;
84144;SDS011;74264;48.988;12.040;2024-03-08T12:01:05;8.50;;;7.25;;
84144;SDS011;74264;48.988;12.040;2024-03-08T12:03:32;10.38;;;7.65;;
84144;SDS011;74264;48.988;12.040;2024-03-08T12:05:59;10.90;;;7.93;;
84144;SDS011;74264;48.988;12.040;2024-03-08T12:08:30;10.65;;;8.25;;
84144;SDS011;74264;48.988;12.040;2024-03-08T12:10:57;10.02;;;8.07;;
84144;SDS011;74264;48.988;12.040;2024-03-08T12:13:26;11.07;;;8.77;;
84144;SDS011;74264;48.988;12.040;2024-03-08T12:15:58;10.13;;;7.72;;
84144;SDS011;74264;48.988;12.040;2024-03-08T12:18:24;9.20;;;7.55;;
84144;SDS011;74264;48.988;12.040;2024-03-08T12:21:09;10.88;;;8.70;;
84144;SDS011;74264;48.988;12.040;2024-03-08T12:23:36;9.32;;;7.40;;
84144;SDS011;74264;48.988;12.040;2024-03-08T12:26:09;9.15;;;7.32;;
84144;SDS011;74264;48.988;12.040;2024-03-08T12:28:48;10.20;;;7.28;;
84144;SDS011;74264;48.988;12.040;2024-03-08T12:31:15;9.82;;;7.10;;
84144;SDS011;74264;48.988;12.040;2024-03-08T12:36:14;7.80;;;6.68;;
84144;SDS011;74264;48.988;12.040;2024-03-08T12:38:45;11.27;;;6.22;;
84144;SDS011;74264;48.988;12.040;2024-03-08T12:41:14;7.88;;;6.07;;
84144;SDS011;74264;48.988;12.040;2024-03-08T12:43:40;8.15;;;7.18;;
84144;SDS011;74264;48.988;12.040;2024-03-08T12:46:07;7.72;;;6.93;;
84144;SDS011;74264;48.988;12.040;2024-03-08T12:48:36;6.35;;;5.75;;
84144;SDS011;74264;48.988;12.040;2024-03-08T12:51:08;7.22;;;5.30;;
84144;SDS011;74264;48.988;12.040;2024-03-08T12:53:35;8.57;;;6.13;;
84144;SDS011;74264;48.988;12.040;2024-03-08T12:56:00;11.45;;;6.32;;
84144;SDS011;74264;48.988;12.040;2024-03-08T12:58:26;7.20;;;6.50;;
84144;SDS011;74264;48.988;12.040;2024-03-08T13:00:52;8.95;;;6.40;;
84144;SDS011;74264;48.988;12.040;2024-03-08T13:03:17;9.02;;;6.47;;
84144;SDS011;74264;48.988;12.040;2024-03-08T13:05:43;8.20;;;7.07;;
84144;SDS011;74264;48.988;12.040;2024-03-08T13:08:09;7.43;;;6.45;;
84144;SDS011;74264;48.988;12.040;2024-03-08T13:10:41;7.50;;;6.70;;
84144;SDS011;74264;48.988;12.040;2024-03-08T13:13:10;8.80;;;6.80;;
84144;SDS011;74264;48.988;12.040;2024-03-08T13:15:37;9.60;;;6.70;;
84144;SDS011;74264;48.988;12.040;2024-03-08T13:18:02;8.88;;;7.45;;
84144;SDS011;74264;48.988;12.040;2024-03-08T13:20:28;12.55;;;7.63;;
84144;SDS011;74264;48.988;12.040;2024-03-08T13:22:54;9.02;;;7.05;;
84144;SDS011;74264;48.988;12.040;2024-03-08T13:25:21;8.52;;;6.72;;
84144;SDS011;74264;48.988;12.040;2024-03-08T13:27:46;8.10;;;7.30;;
84144;SDS011;74264;48.988;12.040;2024-03-08T13:30:12;8.38;;;6.88;;
84144;SDS011;74264;48.988;12.040;2024-03-08T13:32:39;10.30;;;7.03;;
84144;SDS011;74264;48.988;12.040;2024-03-08T13:35:08;9.85;;;6.38;;
84144;SDS011;74264;48.988;12.040;2024-03-08T13:40:07;12.07;;;8.57;;
84144;SDS011;74264;48.988;12.040;2024-03-08T13:42:41;8.60;;;6.87;;
84144;SDS011;74264;48.988;12.040;2024-03-08T13:45:08;9.02;;;7.13;;
84144;SDS011;74264;48.988;12.040;2024-03-08T13:47:38;8.23;;;6.28;;
84144;SDS011;74264;48.988;12.040;2024-03-08T13:50:07;8.38;;;6.88;;
84144;SDS011;74264;48.988;12.040;2024-03-08T13:52:40;7.10;;;6.40;;
84144;SDS011;74264;48.988;12.040;2024-03-08T13:55:06;12.90;;;7.03;;
84144;SDS011;74264;48.988;12.040;2024-03-08T13:57:32;6.47;;;5.78;;
84144;SDS011;74264;48.988;12.040;2024-03-08T13:59:59;8.85;;;6.05;;
84144;SDS011;74264;48.988;12.040;2024-03-08T14:02:25;18.38;;;6.10;;
84144;SDS011;74264;48.988;12.040;2024-03-08T14:04:54;9.43;;;6.32;;
84144;SDS011;74264;48.988;12.040;2024-03-08T14:07:23;7.93;;;7.13;;
84144;SDS011;74264;48.988;12.040;2024-03-08T14:09:49;7.15;;;6.45;;
84144;SDS011;74264;48.988;12.040;2024-03-08T14:12:15;9.95;;;7.28;;
84144;SDS011;74264;48.988;12.040;2024-03-08T14:14:41;12.07;;;7.05;;
84144;SDS011;74264;48.988;12.040;2024-03-08T14:17:10;7.60;;;6.60;;
84144;SDS011;74264;48.988;12.040;2024-03-08T14:19:39;7.90;;;6.82;;
84144;SDS011;74264;48.988;12.040;2024-03-08T14:22:04;9.15;;;6.35;;
84144;SDS011;74264;48.988;12.040;2024-03-08T14:24:30;8.02;;;6.57;;
84144;SDS011;74264;48.988;12.040;2024-03-08T14:26:56;8.65;;;6.00;;
84144;SDS011;74264;48.988;12.040;2024-03-08T14:29:25;6.43;;;5.47;;
84144;SDS011;74264;48.988;12.040;2024-03-08T14:31:54;6.10;;;5.47;;
84144;SDS011;74264;48.988;12.040;2024-03-08T14:34:26;6.05;;;5.43;;